sensor_id;sensor_type;location;lat;lon;timestamp;P1;durP1;ratioP1;P2;durP2;ratioP2
52686;SDS011;38584;49.426;8.396;2022-09-01T00:01:48;15.43;;;7.00;;
52686;SDS011;38584;49.426;8.396;2022-09-01T00:04:16;16.20;;;7.20;;
52686;SDS011;38584;49.426;8.396;2022-09-01T00:06:43;15.30;;;7.32;;
52686;SDS011;38584;49.426;8.396;2022-09-01T00:09:09;19.03;;;7.90;;
52686;SDS011;38584;49.426;8.396;2022-09-01T00:11:35;15.88;;;7.97;;
52686;SDS011;38584;49.426;8.396;2022-09-01T00:14:00;18.25;;;7.50;;
52686;SDS011;38584;49.426;8.396;2022-09-01T00:16:26;16.50;;;7.05;;
52686;SDS011;38584;49.426;8.396;2022-09-01T00:18:52;15.20;;;7.65;;
52686;SDS011;38584;49.426;8.396;2022-09-01T00:21:19;14.77;;;7.32;;
52686;SDS011;38584;49.426;8.396;2022-09-01T00:23:45;14.73;;;7.70;;
52686;SDS011;38584;49.426;8.396;2022-09-01T00:26:11;14.30;;;6.93;;
52686;SDS011;38584;49.426;8.396;2022-09-01T00:28:36;17.00;;;7.32;;
52686;SDS011;38584;49.426;8.396;2022-09-01T00:31:02;15.70;;;7.47;;
52686;SDS011;38584;49.426;8.396;2022-09-01T00:33:28;15.82;;;8.07;;
52686;SDS011;38584;49.426;8.396;2022-09-01T00:35:54;17.40;;;8.20;;
52686;SDS011;38584;49.426;8.396;2022-09-01T00:38:19;15.97;;;8.23;;
52686;SDS011;38584;49.426;8.396;2022-09-01T00:40:44;16.20;;;8.38;;
52686;SDS011;38584;49.426;8.396;2022-09-01T00:43:17;17.20;;;8.45;;
52686;SDS011;38584;49.426;8.396;2022-09-01T00:48:09;19.15;;;8.70;;
52686;SDS011;38584;49.426;8.396;2022-09-01T00:50:35;16.43;;;7.93;;
52686;SDS011;38584;49.426;8.396;2022-09-01T00:53:01;15.85;;;8.52;;
52686;SDS011;38584;49.426;8.396;2022-09-01T00:55:28;16.83;;;9.45;;
52686;SDS011;38584;49.426;8.396;2022-09-01T00:57:54;14.30;;;8.52;;
52686;SDS011;38584;49.426;8.396;2022-09-01T01:00:24;19.15;;;9.32;;
52686;SDS011;38584;49.426;8.396;2022-09-01T01:02:50;16.50;;;9.02;;
52686;SDS011;38584;49.426;8.396;2022-09-01T01:05:24;17.25;;;9.93;;
52686;SDS011;38584;49.426;8.396;2022-09-01T01:07:52;16.98;;;9.10;;
52686;SDS011;38584;49.426;8.396;2022-09-01T01:10:18;16.67;;;10.35;;
52686;SDS011;38584;49.426;8.396;2022-09-01T01:12:46;16.88;;;10.18;;
52686;SDS011;38584;49.426;8.396;2022-09-01T01:15:13;18.98;;;10.43;;
52686;SDS011;38584;49.426;8.396;2022-09-01T01:17:39;17.85;;;10.73;;
52686;SDS011;38584;49.426;8.396;2022-09-01T01:20:05;20.42;;;10.43;;
52686;SDS011;38584;49.426;8.396;2022-09-01T01:25:52;20.20;;;10.80;;
52686;SDS011;38584;49.426;8.396;2022-09-01T01:30:43;19.97;;;10.63;;
52686;SDS011;38584;49.426;8.396;2022-09-01T01:33:08;18.60;;;10.55;;
52686;SDS011;38584;49.426;8.396;2022-09-01T01:35:34;15.93;;;9.93;;
52686;SDS011;38584;49.426;8.396;2022-09-01T01:38:00;16.38;;;9.32;;
52686;SDS011;38584;49.426;8.396;2022-09-01T01:40:26;17.05;;;9.90;;
52686;SDS011;38584;49.426;8.396;2022-09-01T01:42:53;16.45;;;9.32;;
52686;SDS011;38584;49.426;8.396;2022-09-01T01:45:19;16.83;;;9.50;;
52686;SDS011;38584;49.426;8.396;2022-09-01T01:47:45;21.88;;;10.00;;
52686;SDS011;38584;49.426;8.396;2022-09-01T01:50:14;20.23;;;9.20;;
52686;SDS011;38584;49.426;8.396;2022-09-01T01:52:39;20.80;;;9.52;;
52686;SDS011;38584;49.426;8.396;2022-09-01T01:55:06;16.45;;;9.10;;
52686;SDS011;38584;49.426;8.396;2022-09-01T01:57:36;16.90;;;9.35;;
52686;SDS011;38584;49.426;8.396;2022-09-01T02:00:03;19.98;;;8.60;;
52686;SDS011;38584;49.426;8.396;2022-09-01T02:02:28;15.15;;;9.05;;
52686;SDS011;38584;49.426;8.396;2022-09-01T02:04:53;16.03;;;8.67;;
52686;SDS011;38584;49.426;8.396;2022-09-01T02:07:19;19.47;;;8.73;;
52686;SDS011;38584;49.426;8.396;2022-09-01T02:09:44;17.23;;;8.90;;
52686;SDS011;38584;49.426;8.396;2022-09-01T02:12:12;16.20;;;9.00;;
52686;SDS011;38584;49.426;8.396;2022-09-01T02:14:37;15.05;;;9.07;;
52686;SDS011;38584;49.426;8.396;2022-09-01T02:17:02;18.02;;;8.82;;
52686;SDS011;38584;49.426;8.396;2022-09-01T02:19:31;17.23;;;8.15;;
52686;SDS011;38584;49.426;8.396;2022-09-01T02:21:57;14.00;;;8.73;;
52686;SDS011;38584;49.426;8.396;2022-09-01T02:24:24;17.48;;;8.75;;
52686;SDS011;38584;49.426;8.396;2022-09-01T02:26:50;14.90;;;8.60;;
52686;SDS011;38584;49.426;8.396;2022-09-01T02:29:19;16.00;;;8.10;;
52686;SDS011;38584;49.426;8.396;2022-09-01T02:31:46;13.68;;;8.00;;
52686;SDS011;38584;49.426;8.396;2022-09-01T02:34:12;14.40;;;7.90;;
52686;SDS011;38584;49.426;8.396;2022-09-01T02:36:47;15.23;;;8.15;;
52686;SDS011;38584;49.426;8.396;2022-09-01T02:39:14;15.45;;;8.60;;
52686;SDS011;38584;49.426;8.396;2022-09-01T02:41:39;13.60;;;7.50;;
52686;SDS011;38584;49.426;8.396;2022-09-01T02:44:05;14.05;;;7.97;;
52686;SDS011;38584;49.426;8.396;2022-09-01T02:46:36;12.90;;;7.85;;
52686;SDS011;38584;49.426;8.396;2022-09-01T02:49:01;20.15;;;8.48;;
52686;SDS011;38584;49.426;8.396;2022-09-01T02:51:29;15.23;;;7.38;;
52686;SDS011;38584;49.426;8.396;2022-09-01T02:53:54;14.17;;;7.77;;
52686;SDS011;38584;49.426;8.396;2022-09-01T02:56:20;18.53;;;7.57;;
52686;SDS011;38584;49.426;8.396;2022-09-01T02:58:47;19.08;;;7.25;;
52686;SDS011;38584;49.426;8.396;2022-09-01T03:01:16;12.98;;;7.20;;
52686;SDS011;38584;49.426;8.396;2022-09-01T03:03:44;15.35;;;7.20;;
52686;SDS011;38584;49.426;8.396;2022-09-01T03:06:09;13.45;;;6.60;;
52686;SDS011;38584;49.426;8.396;2022-09-01T03:08:37;12.40;;;6.78;;
52686;SDS011;38584;49.426;8.396;2022-09-01T03:11:02;13.63;;;7.18;;
52686;SDS011;38584;49.426;8.396;2022-09-01T03:13:29;12.85;;;7.43;;
52686;SDS011;38584;49.426;8.396;2022-09-01T03:15:55;16.48;;;7.40;;
52686;SDS011;38584;49.426;8.396;2022-09-01T03:18:21;14.50;;;7.38;;
52686;SDS011;38584;49.426;8.396;2022-09-01T03:20:46;15.37;;;8.13;;
52686;SDS011;38584;49.426;8.396;2022-09-01T03:23:13;15.85;;;7.85;;
52686;SDS011;38584;49.426;8.396;2022-09-01T03:25:39;15.32;;;7.70;;
52686;SDS011;38584;49.426;8.396;2022-09-01T03:28:04;13.75;;;7.18;;
52686;SDS011;38584;49.426;8.396;2022-09-01T03:30:31;17.90;;;7.05;;
52686;SDS011;38584;49.426;8.396;2022-09-01T03:32:57;12.60;;;6.63;;
52686;SDS011;38584;49.426;8.396;2022-09-01T03:35:23;13.10;;;7.38;;
52686;SDS011;38584;49.426;8.396;2022-09-01T03:37:49;13.70;;;7.10;;
52686;SDS011;38584;49.426;8.396;2022-09-01T03:40:14;14.43;;;7.10;;
52686;SDS011;38584;49.426;8.396;2022-09-01T03:42:42;13.25;;;7.18;;
52686;SDS011;38584;49.426;8.396;2022-09-01T03:45:07;15.98;;;7.00;;
52686;SDS011;38584;49.426;8.396;2022-09-01T03:47:36;12.18;;;6.38;;
52686;SDS011;38584;49.426;8.396;2022-09-01T03:50:09;13.35;;;7.10;;
52686;SDS011;38584;49.426;8.396;2022-09-01T03:52:37;12.57;;;7.07;;
52686;SDS011;38584;49.426;8.396;2022-09-01T03:55:05;11.25;;;6.57;;
52686;SDS011;38584;49.426;8.396;2022-09-01T03:57:30;12.75;;;6.47;;
52686;SDS011;38584;49.426;8.396;2022-09-01T03:59:55;11.57;;;6.33;;
52686;SDS011;38584;49.426;8.396;2022-09-01T04:02:20;12.45;;;6.43;;
52686;SDS011;38584;49.426;8.396;2022-09-01T04:04:46;13.98;;;6.13;;
52686;SDS011;38584;49.426;8.396;2022-09-01T04:07:12;13.40;;;6.53;;
52686;SDS011;38584;49.426;8.396;2022-09-01T04:09:37;13.70;;;6.75;;
52686;SDS011;38584;49.426;8.396;2022-09-01T04:12:03;14.10;;;6.60;;
52686;SDS011;38584;49.426;8.396;2022-09-01T04:14:30;15.05;;;7.10;;
52686;SDS011;38584;49.426;8.396;2022-09-01T04:16:55;13.80;;;7.47;;
52686;SDS011;38584;49.426;8.396;2022-09-01T04:19:39;15.47;;;7.13;;
52686;SDS011;38584;49.426;8.396;2022-09-01T04:22:04;13.87;;;7.03;;
52686;SDS011;38584;49.426;8.396;2022-09-01T04:24:30;17.95;;;6.55;;
52686;SDS011;38584;49.426;8.396;2022-09-01T04:26:56;13.07;;;6.20;;
52686;SDS011;38584;49.426;8.396;2022-09-01T04:29:23;12.57;;;6.55;;
52686;SDS011;38584;49.426;8.396;2022-09-01T04:31:51;16.48;;;7.68;;
52686;SDS011;38584;49.426;8.396;2022-09-01T04:34:17;15.23;;;7.38;;
52686;SDS011;38584;49.426;8.396;2022-09-01T04:36:43;14.75;;;6.38;;
52686;SDS011;38584;49.426;8.396;2022-09-01T04:39:10;11.73;;;6.30;;
52686;SDS011;38584;49.426;8.396;2022-09-01T04:41:37;13.65;;;7.00;;
52686;SDS011;38584;49.426;8.396;2022-09-01T04:44:03;13.45;;;6.20;;
52686;SDS011;38584;49.426;8.396;2022-09-01T04:46:29;13.68;;;6.95;;
52686;SDS011;38584;49.426;8.396;2022-09-01T04:48:56;14.30;;;6.50;;
52686;SDS011;38584;49.426;8.396;2022-09-01T04:51:22;15.05;;;6.15;;
52686;SDS011;38584;49.426;8.396;2022-09-01T04:53:52;14.75;;;6.45;;
52686;SDS011;38584;49.426;8.396;2022-09-01T04:56:18;12.80;;;5.80;;
52686;SDS011;38584;49.426;8.396;2022-09-01T04:58:46;13.73;;;6.18;;
52686;SDS011;38584;49.426;8.396;2022-09-01T05:01:15;12.10;;;6.33;;
52686;SDS011;38584;49.426;8.396;2022-09-01T05:03:41;15.18;;;5.53;;
52686;SDS011;38584;49.426;8.396;2022-09-01T05:06:11;11.97;;;5.80;;
52686;SDS011;38584;49.426;8.396;2022-09-01T05:08:37;12.30;;;6.32;;
52686;SDS011;38584;49.426;8.396;2022-09-01T05:11:04;14.65;;;6.07;;
52686;SDS011;38584;49.426;8.396;2022-09-01T05:13:31;16.60;;;6.40;;
52686;SDS011;38584;49.426;8.396;2022-09-01T05:16:01;17.65;;;6.07;;
52686;SDS011;38584;49.426;8.396;2022-09-01T05:18:27;11.95;;;6.13;;
52686;SDS011;38584;49.426;8.396;2022-09-01T05:20:53;12.93;;;6.20;;
52686;SDS011;38584;49.426;8.396;2022-09-01T05:23:19;19.02;;;6.50;;
52686;SDS011;38584;49.426;8.396;2022-09-01T05:25:45;13.50;;;6.50;;
52686;SDS011;38584;49.426;8.396;2022-09-01T05:28:12;14.50;;;6.13;;
52686;SDS011;38584;49.426;8.396;2022-09-01T05:30:38;12.63;;;6.30;;
52686;SDS011;38584;49.426;8.396;2022-09-01T05:33:04;16.65;;;6.40;;
52686;SDS011;38584;49.426;8.396;2022-09-01T05:35:35;12.57;;;6.25;;
52686;SDS011;38584;49.426;8.396;2022-09-01T05:38:01;15.73;;;6.40;;
52686;SDS011;38584;49.426;8.396;2022-09-01T05:40:27;14.60;;;6.72;;
52686;SDS011;38584;49.426;8.396;2022-09-01T05:42:52;18.83;;;6.20;;
52686;SDS011;38584;49.426;8.396;2022-09-01T05:45:19;19.23;;;6.68;;
52686;SDS011;38584;49.426;8.396;2022-09-01T05:47:47;16.55;;;5.82;;
52686;SDS011;38584;49.426;8.396;2022-09-01T05:50:12;12.50;;;6.13;;
52686;SDS011;38584;49.426;8.396;2022-09-01T05:52:40;17.75;;;6.10;;
52686;SDS011;38584;49.426;8.396;2022-09-01T05:55:08;17.48;;;6.70;;
52686;SDS011;38584;49.426;8.396;2022-09-01T05:57:34;19.33;;;6.37;;
52686;SDS011;38584;49.426;8.396;2022-09-01T06:00:00;14.27;;;6.20;;
52686;SDS011;38584;49.426;8.396;2022-09-01T06:02:26;15.43;;;5.93;;
52686;SDS011;38584;49.426;8.396;2022-09-01T06:04:51;11.63;;;6.00;;
52686;SDS011;38584;49.426;8.396;2022-09-01T06:07:21;13.85;;;6.20;;
52686;SDS011;38584;49.426;8.396;2022-09-01T06:09:47;12.65;;;6.15;;
52686;SDS011;38584;49.426;8.396;2022-09-01T06:12:13;13.65;;;5.78;;
52686;SDS011;38584;49.426;8.396;2022-09-01T06:14:43;13.88;;;8.48;;
52686;SDS011;38584;49.426;8.396;2022-09-01T06:17:08;14.63;;;8.05;;
52686;SDS011;38584;49.426;8.396;2022-09-01T06:19:36;15.38;;;6.10;;
52686;SDS011;38584;49.426;8.396;2022-09-01T06:22:02;14.52;;;6.13;;
52686;SDS011;38584;49.426;8.396;2022-09-01T06:24:29;14.30;;;6.07;;
52686;SDS011;38584;49.426;8.396;2022-09-01T06:26:54;13.60;;;5.97;;
52686;SDS011;38584;49.426;8.396;2022-09-01T06:29:20;11.83;;;6.10;;
52686;SDS011;38584;49.426;8.396;2022-09-01T06:31:45;14.50;;;6.35;;
52686;SDS011;38584;49.426;8.396;2022-09-01T06:34:11;11.80;;;6.18;;
52686;SDS011;38584;49.426;8.396;2022-09-01T06:36:42;17.58;;;6.68;;
52686;SDS011;38584;49.426;8.396;2022-09-01T06:39:09;13.73;;;6.38;;
52686;SDS011;38584;49.426;8.396;2022-09-01T06:41:39;17.83;;;6.70;;
52686;SDS011;38584;49.426;8.396;2022-09-01T06:44:04;15.73;;;6.70;;
52686;SDS011;38584;49.426;8.396;2022-09-01T06:46:29;12.83;;;6.87;;
52686;SDS011;38584;49.426;8.396;2022-09-01T06:48:55;15.48;;;7.25;;
52686;SDS011;38584;49.426;8.396;2022-09-01T06:51:23;16.98;;;7.47;;
52686;SDS011;38584;49.426;8.396;2022-09-01T06:53:51;15.75;;;7.13;;
52686;SDS011;38584;49.426;8.396;2022-09-01T06:56:20;18.38;;;8.00;;
52686;SDS011;38584;49.426;8.396;2022-09-01T06:58:46;13.90;;;6.90;;
52686;SDS011;38584;49.426;8.396;2022-09-01T07:01:13;13.95;;;7.20;;
52686;SDS011;38584;49.426;8.396;2022-09-01T07:03:44;14.30;;;7.05;;
52686;SDS011;38584;49.426;8.396;2022-09-01T07:06:09;14.25;;;7.57;;
52686;SDS011;38584;49.426;8.396;2022-09-01T07:08:35;13.45;;;6.82;;
52686;SDS011;38584;49.426;8.396;2022-09-01T07:11:04;18.08;;;7.32;;
52686;SDS011;38584;49.426;8.396;2022-09-01T07:13:31;17.20;;;7.78;;
52686;SDS011;38584;49.426;8.396;2022-09-01T07:15:58;16.60;;;7.10;;
52686;SDS011;38584;49.426;8.396;2022-09-01T07:18:24;14.52;;;7.53;;
52686;SDS011;38584;49.426;8.396;2022-09-01T07:20:50;16.73;;;7.25;;
52686;SDS011;38584;49.426;8.396;2022-09-01T07:23:16;13.10;;;6.97;;
52686;SDS011;38584;49.426;8.396;2022-09-01T07:25:42;13.25;;;7.47;;
52686;SDS011;38584;49.426;8.396;2022-09-01T07:28:09;16.90;;;7.88;;
52686;SDS011;38584;49.426;8.396;2022-09-01T07:30:39;14.75;;;8.00;;
52686;SDS011;38584;49.426;8.396;2022-09-01T07:33:04;15.90;;;7.90;;
52686;SDS011;38584;49.426;8.396;2022-09-01T07:35:32;17.60;;;8.57;;
52686;SDS011;38584;49.426;8.396;2022-09-01T07:38:02;15.43;;;7.85;;
52686;SDS011;38584;49.426;8.396;2022-09-01T07:40:28;14.50;;;8.00;;
52686;SDS011;38584;49.426;8.396;2022-09-01T07:42:53;18.05;;;8.50;;
52686;SDS011;38584;49.426;8.396;2022-09-01T07:45:19;16.50;;;8.05;;
52686;SDS011;38584;49.426;8.396;2022-09-01T07:47:44;17.43;;;8.17;;
52686;SDS011;38584;49.426;8.396;2022-09-01T07:50:10;22.08;;;8.57;;
52686;SDS011;38584;49.426;8.396;2022-09-01T07:52:37;13.43;;;7.68;;
52686;SDS011;38584;49.426;8.396;2022-09-01T07:55:07;14.88;;;7.82;;
52686;SDS011;38584;49.426;8.396;2022-09-01T07:57:32;15.88;;;8.50;;
52686;SDS011;38584;49.426;8.396;2022-09-01T07:59:57;17.02;;;8.32;;
52686;SDS011;38584;49.426;8.396;2022-09-01T08:02:23;16.50;;;7.70;;
52686;SDS011;38584;49.426;8.396;2022-09-01T08:04:48;17.38;;;8.15;;
52686;SDS011;38584;49.426;8.396;2022-09-01T08:07:13;16.77;;;8.03;;
52686;SDS011;38584;49.426;8.396;2022-09-01T08:09:39;22.92;;;7.90;;
52686;SDS011;38584;49.426;8.396;2022-09-01T08:12:05;13.82;;;7.20;;
52686;SDS011;38584;49.426;8.396;2022-09-01T08:14:31;16.15;;;7.70;;
52686;SDS011;38584;49.426;8.396;2022-09-01T08:16:59;18.20;;;7.60;;
52686;SDS011;38584;49.426;8.396;2022-09-01T08:19:24;13.30;;;7.10;;
52686;SDS011;38584;49.426;8.396;2022-09-01T08:21:49;16.77;;;7.07;;
52686;SDS011;38584;49.426;8.396;2022-09-01T08:24:14;13.63;;;6.73;;
52686;SDS011;38584;49.426;8.396;2022-09-01T08:26:39;14.17;;;6.80;;
52686;SDS011;38584;49.426;8.396;2022-09-01T08:29:05;18.67;;;7.38;;
52686;SDS011;38584;49.426;8.396;2022-09-01T08:31:30;12.37;;;7.03;;
52686;SDS011;38584;49.426;8.396;2022-09-01T08:33:56;13.05;;;7.10;;
52686;SDS011;38584;49.426;8.396;2022-09-01T08:36:22;16.52;;;7.35;;
52686;SDS011;38584;49.426;8.396;2022-09-01T08:38:48;17.13;;;7.77;;
52686;SDS011;38584;49.426;8.396;2022-09-01T08:41:15;14.05;;;8.50;;
52686;SDS011;38584;49.426;8.396;2022-09-01T08:43:59;13.43;;;7.22;;
52686;SDS011;38584;49.426;8.396;2022-09-01T08:46:35;15.97;;;7.03;;
52686;SDS011;38584;49.426;8.396;2022-09-01T08:49:20;12.82;;;6.72;;
52686;SDS011;38584;49.426;8.396;2022-09-01T08:54:19;15.15;;;7.85;;
52686;SDS011;38584;49.426;8.396;2022-09-01T08:56:46;12.80;;;7.05;;
52686;SDS011;38584;49.426;8.396;2022-09-01T08:59:11;13.55;;;6.57;;
52686;SDS011;38584;49.426;8.396;2022-09-01T09:04:27;16.15;;;6.75;;
52686;SDS011;38584;49.426;8.396;2022-09-01T09:09:24;13.65;;;6.53;;
52686;SDS011;38584;49.426;8.396;2022-09-01T09:19:27;11.90;;;6.23;;
52686;SDS011;38584;49.426;8.396;2022-09-01T09:21:53;11.95;;;6.00;;
52686;SDS011;38584;49.426;8.396;2022-09-01T09:24:25;12.52;;;6.85;;
52686;SDS011;38584;49.426;8.396;2022-09-01T09:26:53;16.02;;;6.65;;
52686;SDS011;38584;49.426;8.396;2022-09-01T09:29:19;13.98;;;7.03;;
52686;SDS011;38584;49.426;8.396;2022-09-01T09:31:46;12.73;;;6.72;;
52686;SDS011;38584;49.426;8.396;2022-09-01T09:34:17;13.25;;;7.00;;
52686;SDS011;38584;49.426;8.396;2022-09-01T09:36:42;14.32;;;6.93;;
52686;SDS011;38584;49.426;8.396;2022-09-01T09:39:11;13.97;;;6.83;;
52686;SDS011;38584;49.426;8.396;2022-09-01T09:41:38;15.10;;;6.95;;
52686;SDS011;38584;49.426;8.396;2022-09-01T09:44:06;16.88;;;7.18;;
52686;SDS011;38584;49.426;8.396;2022-09-01T09:46:38;16.13;;;7.28;;
52686;SDS011;38584;49.426;8.396;2022-09-01T09:51:34;12.80;;;7.00;;
52686;SDS011;38584;49.426;8.396;2022-09-01T09:57:03;12.85;;;6.80;;
52686;SDS011;38584;49.426;8.396;2022-09-01T09:59:30;16.17;;;6.43;;
52686;SDS011;38584;49.426;8.396;2022-09-01T10:01:57;14.95;;;6.07;;
52686;SDS011;38584;49.426;8.396;2022-09-01T10:04:36;12.27;;;6.15;;
52686;SDS011;38584;49.426;8.396;2022-09-01T10:07:05;12.25;;;5.88;;
52686;SDS011;38584;49.426;8.396;2022-09-01T10:09:45;13.77;;;5.90;;
52686;SDS011;38584;49.426;8.396;2022-09-01T10:12:11;13.25;;;5.40;;
52686;SDS011;38584;49.426;8.396;2022-09-01T10:14:39;15.80;;;5.90;;
52686;SDS011;38584;49.426;8.396;2022-09-01T10:17:28;11.60;;;5.65;;
52686;SDS011;38584;49.426;8.396;2022-09-01T10:19:55;13.77;;;5.45;;
52686;SDS011;38584;49.426;8.396;2022-09-01T10:22:21;12.57;;;5.45;;
52686;SDS011;38584;49.426;8.396;2022-09-01T10:24:47;11.27;;;5.88;;
52686;SDS011;38584;49.426;8.396;2022-09-01T10:27:17;11.80;;;5.40;;
52686;SDS011;38584;49.426;8.396;2022-09-01T10:29:44;12.50;;;5.32;;
52686;SDS011;38584;49.426;8.396;2022-09-01T10:32:11;10.60;;;4.57;;
52686;SDS011;38584;49.426;8.396;2022-09-01T10:34:37;12.18;;;4.50;;
52686;SDS011;38584;49.426;8.396;2022-09-01T10:37:04;11.55;;;4.60;;
52686;SDS011;38584;49.426;8.396;2022-09-01T10:39:30;15.60;;;4.60;;
52686;SDS011;38584;49.426;8.396;2022-09-01T10:41:59;10.05;;;4.10;;
52686;SDS011;38584;49.426;8.396;2022-09-01T10:44:32;9.93;;;4.25;;
52686;SDS011;38584;49.426;8.396;2022-09-01T10:47:07;10.57;;;4.65;;
52686;SDS011;38584;49.426;8.396;2022-09-01T10:51:59;10.88;;;4.20;;
52686;SDS011;38584;49.426;8.396;2022-09-01T10:57:08;8.38;;;3.83;;
52686;SDS011;38584;49.426;8.396;2022-09-01T10:59:35;13.38;;;4.63;;
52686;SDS011;38584;49.426;8.396;2022-09-01T11:02:02;7.30;;;3.33;;
52686;SDS011;38584;49.426;8.396;2022-09-01T11:06:57;7.30;;;3.57;;
52686;SDS011;38584;49.426;8.396;2022-09-01T11:09:38;8.40;;;3.20;;
52686;SDS011;38584;49.426;8.396;2022-09-01T11:14:29;6.60;;;2.60;;
52686;SDS011;38584;49.426;8.396;2022-09-01T11:17:13;5.65;;;2.70;;
52686;SDS011;38584;49.426;8.396;2022-09-01T11:19:46;7.15;;;2.75;;
52686;SDS011;38584;49.426;8.396;2022-09-01T11:22:26;9.73;;;3.20;;
52686;SDS011;38584;49.426;8.396;2022-09-01T11:27:54;11.77;;;2.92;;
52686;SDS011;38584;49.426;8.396;2022-09-01T11:30:23;8.77;;;2.80;;
52686;SDS011;38584;49.426;8.396;2022-09-01T11:32:49;7.00;;;2.70;;
52686;SDS011;38584;49.426;8.396;2022-09-01T11:35:18;7.63;;;3.00;;
52686;SDS011;38584;49.426;8.396;2022-09-01T11:37:47;10.55;;;2.90;;
52686;SDS011;38584;49.426;8.396;2022-09-01T11:40:17;11.27;;;3.35;;
52686;SDS011;38584;49.426;8.396;2022-09-01T11:42:45;6.28;;;2.83;;
52686;SDS011;38584;49.426;8.396;2022-09-01T11:45:17;6.80;;;3.00;;
52686;SDS011;38584;49.426;8.396;2022-09-01T11:47:47;6.35;;;2.55;;
52686;SDS011;38584;49.426;8.396;2022-09-01T11:53:19;10.55;;;2.83;;
52686;SDS011;38584;49.426;8.396;2022-09-01T11:55:49;8.80;;;2.70;;
52686;SDS011;38584;49.426;8.396;2022-09-01T11:58:29;3.92;;;2.35;;
52686;SDS011;38584;49.426;8.396;2022-09-01T12:00:56;6.28;;;2.30;;
52686;SDS011;38584;49.426;8.396;2022-09-01T12:03:25;5.20;;;2.50;;
52686;SDS011;38584;49.426;8.396;2022-09-01T12:05:52;5.70;;;2.60;;
52686;SDS011;38584;49.426;8.396;2022-09-01T12:08:23;8.70;;;2.30;;
52686;SDS011;38584;49.426;8.396;2022-09-01T12:10:48;6.55;;;2.45;;
52686;SDS011;38584;49.426;8.396;2022-09-01T12:15:40;9.43;;;2.53;;
52686;SDS011;38584;49.426;8.396;2022-09-01T12:18:17;8.52;;;2.47;;
52686;SDS011;38584;49.426;8.396;2022-09-01T12:20:43;8.15;;;2.80;;
52686;SDS011;38584;49.426;8.396;2022-09-01T12:23:22;7.03;;;2.60;;
52686;SDS011;38584;49.426;8.396;2022-09-01T12:25:48;4.47;;;2.40;;
52686;SDS011;38584;49.426;8.396;2022-09-01T12:28:13;5.13;;;2.35;;
52686;SDS011;38584;49.426;8.396;2022-09-01T12:30:40;5.40;;;2.65;;
52686;SDS011;38584;49.426;8.396;2022-09-01T12:33:06;6.88;;;2.58;;
52686;SDS011;38584;49.426;8.396;2022-09-01T12:35:33;5.97;;;2.38;;
52686;SDS011;38584;49.426;8.396;2022-09-01T12:40:42;5.93;;;2.40;;
52686;SDS011;38584;49.426;8.396;2022-09-01T12:43:08;6.90;;;2.40;;
52686;SDS011;38584;49.426;8.396;2022-09-01T12:48:01;5.38;;;2.40;;
52686;SDS011;38584;49.426;8.396;2022-09-01T12:52:55;7.10;;;2.38;;
52686;SDS011;38584;49.426;8.396;2022-09-01T12:55:23;14.30;;;3.05;;
52686;SDS011;38584;49.426;8.396;2022-09-01T12:57:50;11.68;;;3.20;;
52686;SDS011;38584;49.426;8.396;2022-09-01T13:00:17;8.32;;;2.90;;
52686;SDS011;38584;49.426;8.396;2022-09-01T13:02:45;9.40;;;3.10;;
52686;SDS011;38584;49.426;8.396;2022-09-01T13:07:59;10.63;;;3.20;;
52686;SDS011;38584;49.426;8.396;2022-09-01T13:10:25;8.00;;;3.00;;
52686;SDS011;38584;49.426;8.396;2022-09-01T13:12:52;8.27;;;2.80;;
52686;SDS011;38584;49.426;8.396;2022-09-01T13:15:17;7.20;;;2.95;;
52686;SDS011;38584;49.426;8.396;2022-09-01T13:17:42;7.83;;;2.80;;
52686;SDS011;38584;49.426;8.396;2022-09-01T13:20:08;5.75;;;2.80;;
52686;SDS011;38584;49.426;8.396;2022-09-01T13:22:33;9.85;;;3.38;;
52686;SDS011;38584;49.426;8.396;2022-09-01T13:24:59;5.90;;;2.92;;
52686;SDS011;38584;49.426;8.396;2022-09-01T13:27:24;11.98;;;2.70;;
52686;SDS011;38584;49.426;8.396;2022-09-01T13:29:49;5.63;;;2.95;;
52686;SDS011;38584;49.426;8.396;2022-09-01T13:32:15;6.63;;;2.85;;
52686;SDS011;38584;49.426;8.396;2022-09-01T13:34:41;6.95;;;2.95;;
52686;SDS011;38584;49.426;8.396;2022-09-01T13:37:06;8.55;;;2.95;;
52686;SDS011;38584;49.426;8.396;2022-09-01T13:39:31;8.93;;;3.07;;
52686;SDS011;38584;49.426;8.396;2022-09-01T13:41:56;9.27;;;2.90;;
52686;SDS011;38584;49.426;8.396;2022-09-01T13:44:21;9.57;;;3.00;;
52686;SDS011;38584;49.426;8.396;2022-09-01T13:46:47;7.35;;;2.88;;
52686;SDS011;38584;49.426;8.396;2022-09-01T13:49:12;6.70;;;2.90;;
52686;SDS011;38584;49.426;8.396;2022-09-01T13:51:37;9.60;;;3.30;;
52686;SDS011;38584;49.426;8.396;2022-09-01T13:54:02;8.98;;;2.92;;
52686;SDS011;38584;49.426;8.396;2022-09-01T13:56:28;6.45;;;2.70;;
52686;SDS011;38584;49.426;8.396;2022-09-01T13:58:53;12.15;;;3.10;;
52686;SDS011;38584;49.426;8.396;2022-09-01T14:01:19;7.07;;;2.83;;
52686;SDS011;38584;49.426;8.396;2022-09-01T14:03:45;12.15;;;3.13;;
52686;SDS011;38584;49.426;8.396;2022-09-01T14:06:10;7.40;;;2.50;;
52686;SDS011;38584;49.426;8.396;2022-09-01T14:08:35;6.43;;;2.83;;
52686;SDS011;38584;49.426;8.396;2022-09-01T14:11:00;12.27;;;3.00;;
52686;SDS011;38584;49.426;8.396;2022-09-01T14:13:26;5.88;;;2.65;;
52686;SDS011;38584;49.426;8.396;2022-09-01T14:15:52;6.95;;;2.78;;
52686;SDS011;38584;49.426;8.396;2022-09-01T14:18:18;8.07;;;2.50;;
52686;SDS011;38584;49.426;8.396;2022-09-01T14:20:44;4.80;;;2.50;;
52686;SDS011;38584;49.426;8.396;2022-09-01T14:23:11;8.68;;;2.95;;
52686;SDS011;38584;49.426;8.396;2022-09-01T14:25:40;8.07;;;2.97;;
52686;SDS011;38584;49.426;8.396;2022-09-01T14:28:06;6.03;;;2.80;;
52686;SDS011;38584;49.426;8.396;2022-09-01T14:30:32;7.60;;;2.90;;
52686;SDS011;38584;49.426;8.396;2022-09-01T14:32:58;9.07;;;3.20;;
52686;SDS011;38584;49.426;8.396;2022-09-01T14:35:23;7.50;;;2.50;;
52686;SDS011;38584;49.426;8.396;2022-09-01T14:37:51;6.47;;;2.67;;
52686;SDS011;38584;49.426;8.396;2022-09-01T14:40:16;7.03;;;2.75;;
52686;SDS011;38584;49.426;8.396;2022-09-01T14:42:42;5.47;;;2.63;;
52686;SDS011;38584;49.426;8.396;2022-09-01T14:45:13;5.28;;;2.40;;
52686;SDS011;38584;49.426;8.396;2022-09-01T14:47:40;5.65;;;2.55;;
52686;SDS011;38584;49.426;8.396;2022-09-01T14:50:05;6.10;;;2.70;;
52686;SDS011;38584;49.426;8.396;2022-09-01T14:52:31;6.35;;;2.90;;
52686;SDS011;38584;49.426;8.396;2022-09-01T14:54:56;5.60;;;2.60;;
52686;SDS011;38584;49.426;8.396;2022-09-01T14:57:22;4.97;;;2.45;;
52686;SDS011;38584;49.426;8.396;2022-09-01T14:59:47;5.90;;;2.50;;
52686;SDS011;38584;49.426;8.396;2022-09-01T15:02:12;5.87;;;2.53;;
52686;SDS011;38584;49.426;8.396;2022-09-01T15:04:38;7.13;;;2.60;;
52686;SDS011;38584;49.426;8.396;2022-09-01T15:07:03;5.82;;;2.53;;
52686;SDS011;38584;49.426;8.396;2022-09-01T15:09:30;5.65;;;2.50;;
52686;SDS011;38584;49.426;8.396;2022-09-01T15:11:56;7.30;;;2.72;;
52686;SDS011;38584;49.426;8.396;2022-09-01T15:14:21;6.43;;;2.80;;
52686;SDS011;38584;49.426;8.396;2022-09-01T15:16:46;7.73;;;2.60;;
52686;SDS011;38584;49.426;8.396;2022-09-01T15:19:12;7.37;;;2.70;;
52686;SDS011;38584;49.426;8.396;2022-09-01T15:21:37;5.57;;;2.75;;
52686;SDS011;38584;49.426;8.396;2022-09-01T15:24:03;5.97;;;2.38;;
52686;SDS011;38584;49.426;8.396;2022-09-01T15:26:30;4.40;;;2.20;;
52686;SDS011;38584;49.426;8.396;2022-09-01T15:28:55;7.80;;;2.60;;
52686;SDS011;38584;49.426;8.396;2022-09-01T15:31:21;5.70;;;2.75;;
52686;SDS011;38584;49.426;8.396;2022-09-01T15:33:48;8.13;;;2.55;;
52686;SDS011;38584;49.426;8.396;2022-09-01T15:36:14;9.23;;;2.80;;